Terminal Aerodrome Forecast
Issued by NWS

Home | Current Version | Previous Version | Text Only | Print | Product List | Glossary On
Versions: 1 2 3 4 5 6 7 8 9 10 11 12 13 14 15 16 17 18 19 20 21
310
FTUS41 KBTV 270532
TAFMSS
TAF
KMSS 270532Z 2706/2806 08007KT P6SM OVC020
     FM270800 09007KT 5SM -RA BR OVC020
     FM271100 09006KT 5SM -RA BR OVC015
     FM271700 13006KT 5SM -RA BR OVC015
     FM272200 VRB03KT P6SM VCSH OVC008=

USA.gov is the U.S. government's official web portal to all federal, state and local government web resources and services.